createdAt,value
2022-12-08T00:00:07.075Z,998.2
2022-12-08T00:03:12.414Z,998.1
2022-12-08T00:05:40.620Z,998
2022-12-08T00:08:08.872Z,998
2022-12-08T00:11:14.149Z,998.1
2022-12-08T00:13:42.370Z,998
2022-12-08T00:16:10.721Z,998.1
2022-12-08T00:19:15.957Z,998
2022-12-08T00:21:44.241Z,998
2022-12-08T00:24:12.461Z,998
2022-12-08T00:26:40.676Z,998
2022-12-08T00:29:11.961Z,998
2022-12-08T00:32:14.352Z,997.9
2022-12-08T00:34:42.491Z,997.9
2022-12-08T00:37:10.762Z,997.9
2022-12-08T00:40:16.055Z,997.7
2022-12-08T00:42:44.292Z,997.7
2022-12-08T00:45:12.573Z,997.7
2022-12-08T00:47:40.778Z,997.7
2022-12-08T00:50:08.999Z,997.7
2022-12-08T00:53:14.351Z,997.7
2022-12-08T00:55:42.576Z,997.7
2022-12-08T00:58:10.819Z,997.7
2022-12-08T01:01:08.033Z,997.7
2022-12-08T01:04:13.287Z,997.7
2022-12-08T01:06:41.488Z,997.7
2022-12-08T01:09:09.748Z,997.6
2022-12-08T01:12:15.066Z,997.7
2022-12-08T01:14:43.342Z,997.7
2022-12-08T01:17:11.602Z,997.7
2022-12-08T01:19:39.812Z,997.7
2022-12-08T01:22:08.072Z,997.7
2022-12-08T01:25:13.382Z,997.7
2022-12-08T01:27:41.589Z,997.7
2022-12-08T01:30:09.843Z,997.7
2022-12-08T01:33:15.197Z,997.6
2022-12-08T01:35:43.432Z,997.6
2022-12-08T01:38:11.689Z,997.7
2022-12-08T01:41:16.974Z,997.7
2022-12-08T01:43:45.205Z,997.6
2022-12-08T01:46:13.546Z,997.6
2022-12-08T01:48:41.737Z,997.5
2022-12-08T01:51:09.962Z,997.5
2022-12-08T01:54:15.253Z,997.5
2022-12-08T01:56:43.511Z,997.4
2022-12-08T01:59:11.758Z,997.4
2022-12-08T02:02:08.971Z,997.4
2022-12-08T02:05:14.210Z,997.3
2022-12-08T02:07:42.497Z,997.3
2022-12-08T02:10:10.697Z,997.2
2022-12-08T02:13:16.037Z,997.2
2022-12-08T02:15:44.289Z,997.2
2022-12-08T02:18:12.501Z,997.1
2022-12-08T02:20:40.747Z,997.1
2022-12-08T02:23:08.973Z,997.1
2022-12-08T02:26:14.349Z,997
2022-12-08T02:28:42.564Z,997
2022-12-08T02:31:10.949Z,997
2022-12-08T02:34:16.146Z,997
2022-12-08T02:36:44.383Z,997
2022-12-08T02:39:12.652Z,997
2022-12-08T02:41:40.858Z,997
2022-12-08T02:44:09.089Z,996.9
2022-12-08T02:47:14.409Z,997
2022-12-08T02:49:42.645Z,997
2022-12-08T02:52:10.895Z,997
2022-12-08T02:55:16.221Z,996.9
2022-12-08T02:57:44.473Z,997
2022-12-08T03:00:12.735Z,996.9
2022-12-08T03:02:41.007Z,996.9
2022-12-08T03:05:09.210Z,996.7
2022-12-08T03:08:14.601Z,996.8
2022-12-08T03:11:48.729Z,996.8
2022-12-08T03:14:53.976Z,996.7
2022-12-08T03:17:59.317Z,996.8
2022-12-08T03:21:04.613Z,996.8
2022-12-08T03:24:09.928Z,996.8
2022-12-08T03:27:16.262Z,996.7
2022-12-08T03:29:43.515Z,996.7
2022-12-08T03:32:11.727Z,996.8
2022-12-08T03:34:40.295Z,996.8
2022-12-08T03:37:08.492Z,996.7
2022-12-08T03:40:13.541Z,996.6
2022-12-08T03:42:41.769Z,996.6
2022-12-08T03:45:10.031Z,996.5
2022-12-08T03:48:15.354Z,996.5
2022-12-08T03:50:43.588Z,996.5
2022-12-08T03:53:11.883Z,996.5
2022-12-08T03:55:40.091Z,996.5
2022-12-08T03:58:08.324Z,996.5
2022-12-08T04:01:13.651Z,996.5
2022-12-08T04:03:41.890Z,996.5
2022-12-08T04:06:10.155Z,996.4
2022-12-08T04:09:15.439Z,996.4
2022-12-08T04:12:16.655Z,996.3
2022-12-08T04:14:44.987Z,996.3
2022-12-08T04:17:13.142Z,996.3
2022-12-08T04:19:41.408Z,998.6
2022-12-08T04:22:09.619Z,996.2
2022-12-08T04:25:52.023Z,996.3
2022-12-08T04:28:57.361Z,996.2
2022-12-08T04:32:02.646Z,996.2
2022-12-08T04:35:07.958Z,996.2
2022-12-08T04:38:13.268Z,996.2
2022-12-08T04:40:41.519Z,996.2
2022-12-08T04:43:09.733Z,996.1
2022-12-08T04:46:15.081Z,996.1
2022-12-08T04:48:43.289Z,996.1
2022-12-08T04:51:11.565Z,996.1
2022-12-08T04:54:16.858Z,996.1
2022-12-08T04:56:45.075Z,996.2
2022-12-08T04:59:13.342Z,996.1
2022-12-08T05:04:09.845Z,996.1
2022-12-08T05:07:15.179Z,996.1
2022-12-08T05:09:43.424Z,996.1
2022-12-08T05:12:03.442Z,996.1
2022-12-08T05:15:08.779Z,996.1
2022-12-08T05:18:14.077Z,996.2
2022-12-08T05:20:42.342Z,996.2
2022-12-08T05:23:10.558Z,996.1
2022-12-08T05:26:15.878Z,996.1
2022-12-08T05:28:44.338Z,996.1
2022-12-08T05:31:12.547Z,996
2022-12-08T05:33:40.624Z,996
2022-12-08T05:36:08.893Z,996
2022-12-08T05:39:14.200Z,996
2022-12-08T05:41:42.453Z,996
2022-12-08T05:44:10.668Z,996
2022-12-08T05:47:16.014Z,995.9
2022-12-08T05:49:44.258Z,995.9
2022-12-08T05:52:12.489Z,995.9
2022-12-08T05:54:40.738Z,995.9
2022-12-08T05:57:09.020Z,995.9
2022-12-08T06:00:14.267Z,995.9
2022-12-08T06:02:42.741Z,995.9
2022-12-08T06:05:10.769Z,995.8
2022-12-08T06:08:16.153Z,995.8
2022-12-08T06:10:44.308Z,995.8
2022-12-08T06:13:04.422Z,995.9
2022-12-08T06:16:09.768Z,995.9
2022-12-08T06:19:52.051Z,995.9
2022-12-08T06:22:57.388Z,995.9
2022-12-08T06:26:02.687Z,995.9
2022-12-08T06:29:07.977Z,995.9
2022-12-08T06:32:13.338Z,995.9
2022-12-08T06:34:41.531Z,995.9
2022-12-08T06:37:09.774Z,995.9
2022-12-08T06:40:15.106Z,995.9
2022-12-08T06:42:43.374Z,996
2022-12-08T06:45:11.609Z,996
2022-12-08T06:47:39.838Z,995.9
2022-12-08T06:50:08.276Z,996
2022-12-08T06:53:13.410Z,996
2022-12-08T06:55:58.210Z,996
2022-12-08T06:58:09.903Z,996
2022-12-08T07:01:15.306Z,996
2022-12-08T07:03:43.433Z,996
2022-12-08T07:06:11.717Z,995.9
2022-12-08T07:09:17.020Z,996
2022-12-08T07:11:45.241Z,996
2022-12-08T07:14:13.533Z,996
2022-12-08T07:16:33.587Z,996.1
2022-12-08T07:19:01.820Z,996
2022-12-08T07:22:07.129Z,996
2022-12-08T07:25:12.501Z,996
2022-12-08T07:27:40.682Z,996
2022-12-08T07:30:08.944Z,995.9
2022-12-08T07:33:14.219Z,996
2022-12-08T07:35:46.400Z,996
2022-12-08T07:38:10.707Z,996
2022-12-08T07:40:38.959Z,996
2022-12-08T07:43:07.229Z,996
2022-12-08T07:46:12.611Z,995.9
2022-12-08T07:48:40.770Z,995.9
2022-12-08T07:51:09.037Z,995.9
2022-12-08T07:54:14.348Z,995.9
2022-12-08T07:56:42.560Z,995.9
2022-12-08T07:59:10.816Z,995.9
2022-12-08T08:02:23.978Z,995.9
2022-12-08T08:04:44.509Z,995.9
2022-12-08T08:07:12.641Z,995.8
2022-12-08T08:09:40.919Z,995.8
2022-12-08T08:12:30.023Z,995.8
2022-12-08T08:15:06.241Z,995.9
2022-12-08T08:18:11.518Z,995.8
2022-12-08T08:21:43.610Z,995.9
2022-12-08T08:23:45.130Z,995.9
2022-12-08T08:26:13.339Z,995.9
2022-12-08T08:28:41.587Z,995.9
2022-12-08T08:31:09.910Z,995.9
2022-12-08T08:34:15.149Z,995.9
2022-12-08T08:36:43.453Z,995.8
2022-12-08T08:39:11.649Z,995.8
2022-12-08T08:41:39.902Z,995.8
2022-12-08T08:44:08.151Z,995.9
2022-12-08T08:47:13.505Z,995.9
2022-12-08T08:49:41.704Z,995.9
2022-12-08T08:52:09.939Z,995.9
2022-12-08T08:55:15.276Z,995.9
2022-12-08T08:57:43.481Z,995.9
2022-12-08T09:00:11.739Z,995.8
2022-12-08T09:02:39.982Z,995.8
2022-12-08T09:05:08.337Z,995.9
2022-12-08T09:08:13.585Z,995.8
2022-12-08T09:10:41.842Z,995.8
2022-12-08T09:13:10.033Z,995.8
2022-12-08T09:16:07.254Z,995.8
2022-12-08T09:19:12.486Z,995.8
2022-12-08T09:21:40.709Z,995.8
2022-12-08T09:24:46.007Z,995.8
2022-12-08T09:27:14.261Z,995.8
2022-12-08T09:29:42.506Z,995.7
2022-12-08T09:32:10.804Z,995.7
2022-12-08T09:35:16.050Z,995.7
2022-12-08T09:37:44.305Z,995.7
2022-12-08T09:40:12.561Z,995.7
2022-12-08T09:42:40.829Z,995.6
2022-12-08T09:45:09.086Z,995.6
2022-12-08T09:48:14.365Z,995.6
2022-12-08T09:50:42.632Z,995.5
2022-12-08T09:53:10.856Z,995.6
2022-12-08T09:56:16.181Z,995.6
2022-12-08T09:58:44.470Z,995.5
2022-12-08T10:01:12.706Z,995.5
2022-12-08T10:03:40.941Z,995.5
2022-12-08T10:06:09.156Z,995.4
2022-12-08T10:09:17.193Z,995.5
2022-12-08T10:11:42.729Z,995.4
2022-12-08T10:14:02.799Z,995.3
2022-12-08T10:17:08.125Z,995.3
2022-12-08T10:20:13.421Z,995.3
2022-12-08T10:22:44.849Z,995.3
2022-12-08T10:25:09.889Z,995.2
2022-12-08T10:28:15.231Z,995.2
2022-12-08T10:30:43.443Z,995.2
2022-12-08T10:33:11.741Z,995.2
2022-12-08T10:35:39.930Z,995.2
2022-12-08T10:38:45.246Z,995.1
2022-12-08T10:41:13.480Z,995.1
2022-12-08T10:43:41.750Z,995.1
2022-12-08T10:46:10.024Z,995.1
2022-12-08T10:49:15.319Z,995.1
2022-12-08T10:51:43.612Z,995.1
2022-12-08T10:54:11.792Z,995.1
2022-12-08T10:56:40.046Z,995.1
2022-12-08T10:59:08.297Z,995
2022-12-08T11:02:13.716Z,994.9
2022-12-08T11:04:41.861Z,994.9
2022-12-08T11:07:10.145Z,994.9
2022-12-08T11:10:15.412Z,994.9
2022-12-08T11:12:43.679Z,994.9
2022-12-08T11:15:03.733Z,994.8
2022-12-08T11:18:09.014Z,994.8
2022-12-08T11:21:14.337Z,994.6
2022-12-08T11:23:42.612Z,994.7
2022-12-08T11:26:10.823Z,994.6
2022-12-08T11:29:16.153Z,994.6
2022-12-08T11:31:44.432Z,994.6
2022-12-08T11:34:12.666Z,994.6
2022-12-08T11:36:40.908Z,994.6
2022-12-08T11:39:09.101Z,994.3
2022-12-08T11:42:14.422Z,994.5
2022-12-08T11:44:42.705Z,994.5
2022-12-08T11:47:10.929Z,994.5
2022-12-08T11:50:18.091Z,994.5
2022-12-08T11:52:44.471Z,994.5
2022-12-08T11:55:12.728Z,994.4
2022-12-08T11:57:41.014Z,994.4
2022-12-08T12:00:09.232Z,994.1
2022-12-08T12:03:14.612Z,994.2
2022-12-08T12:06:05.729Z,994.3
2022-12-08T12:08:11.073Z,994.3
2022-12-08T12:11:16.314Z,994.2
2022-12-08T12:13:44.594Z,994.2
2022-12-08T12:16:12.889Z,994.2
2022-12-08T12:18:32.888Z,994.2
2022-12-08T12:21:01.162Z,994.1
2022-12-08T12:24:06.426Z,994.1
2022-12-08T12:27:11.784Z,994.1
2022-12-08T12:30:17.148Z,994.1
2022-12-08T12:32:45.337Z,994.1
2022-12-08T12:35:13.565Z,994.1
2022-12-08T12:37:41.827Z,994.1
2022-12-08T12:40:10.023Z,994
2022-12-08T12:43:15.331Z,994.1
2022-12-08T12:45:43.682Z,994.1
2022-12-08T12:48:11.874Z,994
2022-12-08T12:50:40.104Z,994
2022-12-08T12:53:13.672Z,994
2022-12-08T12:56:13.679Z,994
2022-12-08T12:58:41.958Z,994
2022-12-08T13:01:10.218Z,994
2022-12-08T13:04:15.477Z,993.9
2022-12-08T13:06:43.734Z,994
2022-12-08T13:09:11.937Z,994
2022-12-08T13:11:44.790Z,993.9
2022-12-08T13:14:08.438Z,993.9
2022-12-08T13:17:05.655Z,993.9
2022-12-08T13:20:11.054Z,993.9
2022-12-08T13:23:16.187Z,993.9
2022-12-08T13:25:44.424Z,993.9
2022-12-08T13:28:12.681Z,993.9
2022-12-08T13:30:41.012Z,993.9
2022-12-08T13:33:17.554Z,993.6
2022-12-08T13:36:14.478Z,993.8
2022-12-08T13:38:42.774Z,993.8
2022-12-08T13:41:10.971Z,993.7
2022-12-08T13:57:14.804Z,993.6
2022-12-08T13:59:42.831Z,993.6
2022-12-08T14:02:11.151Z,993.6
2022-12-08T14:05:18.447Z,993.6
2022-12-08T14:07:44.684Z,993.7
2022-12-08T14:10:12.915Z,993.6
2022-12-08T14:12:41.127Z,993.6
2022-12-08T14:15:09.427Z,993.5
2022-12-08T14:18:06.515Z,993.6
2022-12-08T14:21:20.602Z,993.6
2022-12-08T14:24:17.126Z,993.5
2022-12-08T14:26:45.413Z,993.6
2022-12-08T14:29:50.786Z,993.6
2022-12-08T14:32:55.974Z,993.6
2022-12-08T14:36:01.274Z,993.6
2022-12-08T14:39:06.623Z,993.7
2022-12-08T14:42:11.923Z,993.8
2022-12-08T14:44:40.161Z,993.8
2022-12-08T14:47:08.433Z,993.8
2022-12-08T14:50:13.745Z,993.8
2022-12-08T14:52:41.972Z,993.8
2022-12-08T14:55:10.197Z,993.8
2022-12-08T14:58:16.762Z,993.8
2022-12-08T15:00:43.809Z,993.8
2022-12-08T15:03:12.044Z,993.8
2022-12-08T15:05:40.266Z,993.8
2022-12-08T15:08:08.586Z,993.8
2022-12-08T15:11:13.779Z,993.7
2022-12-08T15:13:42.084Z,993.8
2022-12-08T15:16:10.396Z,993.8
2022-12-08T15:19:09.711Z,993.9
2022-12-08T15:22:12.764Z,993.9
2022-12-08T15:24:41.009Z,993.9
2022-12-08T15:27:09.244Z,993.7
2022-12-08T15:30:14.602Z,993.8
2022-12-08T15:32:42.785Z,993.8
2022-12-08T15:35:11.055Z,993.8
2022-12-08T15:37:39.312Z,993.8
2022-12-08T15:40:07.812Z,993.8
2022-12-08T15:43:12.866Z,993.8
2022-12-08T15:45:46.946Z,993.8
2022-12-08T15:48:09.380Z,993.6
2022-12-08T15:51:14.648Z,993.8
2022-12-08T15:53:42.925Z,993.8
2022-12-08T15:56:27.988Z,993.8
2022-12-08T15:59:16.440Z,993.8
2022-12-08T16:01:44.731Z,993.8
2022-12-08T16:05:11.877Z,993.8
2022-12-08T16:09:12.658Z,993.7
2022-12-08T16:12:14.948Z,993.8
2022-12-08T16:17:40.149Z,993.7
2022-12-08T16:20:08.785Z,993.7
2022-12-08T16:23:34.492Z,993.6
2022-12-08T16:26:16.044Z,993.7
2022-12-08T16:28:23.601Z,993.6
2022-12-08T16:31:18.828Z,993.6
2022-12-08T16:33:43.749Z,993.6
2022-12-08T16:36:12.011Z,993.6
2022-12-08T16:38:40.221Z,993.5
2022-12-08T16:41:08.450Z,993.5
2022-12-08T16:44:13.776Z,993.5
2022-12-08T16:46:42.045Z,993.5
2022-12-08T16:49:10.300Z,993.5
2022-12-08T16:52:15.590Z,993.5
2022-12-08T16:54:43.838Z,993.5
2022-12-08T16:57:12.115Z,993.5
2022-12-08T16:59:40.324Z,995.9
2022-12-08T17:02:45.690Z,993.4
2022-12-08T17:05:14.007Z,993.5
2022-12-08T17:07:42.199Z,993.4
2022-12-08T17:10:10.386Z,993.4
2022-12-08T17:13:15.686Z,993.4
2022-12-08T17:15:43.958Z,993.4
2022-12-08T17:18:12.202Z,993.3
2022-12-08T17:20:32.248Z,993.4
2022-12-08T17:23:00.476Z,993.3
2022-12-08T17:26:05.789Z,993.4
2022-12-08T17:29:11.094Z,993.4
2022-12-08T17:32:16.425Z,993.4
2022-12-08T17:34:44.660Z,993.4
2022-12-08T17:37:12.952Z,993.4
2022-12-08T17:39:41.142Z,993.3
2022-12-08T17:42:09.405Z,993.2
2022-12-08T17:45:14.690Z,993.3
2022-12-08T17:47:42.953Z,993.3
2022-12-08T17:50:11.185Z,993.3
2022-12-08T17:53:16.491Z,993.3
2022-12-08T17:55:44.761Z,993.3
2022-12-08T17:58:13.016Z,993.3
2022-12-08T18:00:41.363Z,993.3
2022-12-08T18:03:09.535Z,993.2
2022-12-08T18:06:14.826Z,993.3
2022-12-08T18:08:43.049Z,993.3
2022-12-08T18:11:11.339Z,993.4
2022-12-08T18:13:39.543Z,993.4
2022-12-08T18:16:07.820Z,993.4
2022-12-08T18:19:04.909Z,993.4
2022-12-08T18:22:10.229Z,993.4
2022-12-08T18:25:15.538Z,993.4
2022-12-08T18:27:43.782Z,993.4
2022-12-08T18:30:12.221Z,993.4
2022-12-08T18:32:40.277Z,993.5
2022-12-08T18:35:08.496Z,993.4
2022-12-08T18:38:13.831Z,993.3
2022-12-08T18:40:42.085Z,993.3
2022-12-08T18:43:10.366Z,993.3
2022-12-08T18:46:15.682Z,993.4
2022-12-08T18:48:43.863Z,993.4
2022-12-08T18:51:12.129Z,993.3
2022-12-08T18:53:40.408Z,993.4
2022-12-08T18:56:45.663Z,993.3
2022-12-08T18:59:13.927Z,993.2
2022-12-08T19:01:42.266Z,993.2
2022-12-08T19:04:29.351Z,993.2
2022-12-08T19:07:15.714Z,993.2
2022-12-08T19:09:44.008Z,993.3
2022-12-08T19:12:12.198Z,993.2
2022-12-08T19:14:40.543Z,993.3
2022-12-08T19:17:08.702Z,993.3
2022-12-08T19:20:06.174Z,993.3
2022-12-08T19:23:11.151Z,993.3
2022-12-08T19:26:16.459Z,993.3
2022-12-08T19:28:44.696Z,993.3
2022-12-08T19:31:12.988Z,993.3
2022-12-08T19:33:41.248Z,993.3
2022-12-08T19:36:09.475Z,993.1
2022-12-08T19:39:14.827Z,993.2
2022-12-08T19:41:43.039Z,993.1
2022-12-08T19:44:11.258Z,993.1
2022-12-08T19:47:16.643Z,993.1
2022-12-08T19:49:44.839Z,993.1
2022-12-08T19:52:13.060Z,993.1
2022-12-08T19:54:41.316Z,993.1
2022-12-08T19:57:09.562Z,993.1
2022-12-08T20:00:14.974Z,993
2022-12-08T20:02:43.302Z,993
2022-12-08T20:05:11.371Z,993
2022-12-08T20:08:16.702Z,993.1
2022-12-08T20:10:44.908Z,993.1
2022-12-08T20:13:13.174Z,993
2022-12-08T20:15:41.490Z,993.3
2022-12-08T20:18:38.535Z,993
2022-12-08T20:21:43.836Z,993
2022-12-08T20:24:12.123Z,993
2022-12-08T20:26:40.336Z,993
2022-12-08T20:29:45.649Z,993
2022-12-08T20:32:14.018Z,993
2022-12-08T20:34:42.150Z,993
2022-12-08T20:37:10.366Z,992.9
2022-12-08T20:40:15.710Z,993
2022-12-08T20:42:43.953Z,992.9
2022-12-08T20:45:12.164Z,992.9
2022-12-08T20:47:40.424Z,993
2022-12-08T20:50:09.004Z,993
2022-12-08T20:53:14.090Z,992.9
2022-12-08T20:55:42.345Z,992.9
2022-12-08T20:58:10.550Z,993
2022-12-08T21:01:16.129Z,993
2022-12-08T21:03:44.227Z,993
2022-12-08T21:06:12.438Z,993
2022-12-08T21:08:40.865Z,993
2022-12-08T21:11:08.848Z,993
2022-12-08T21:14:14.325Z,993
2022-12-08T21:16:42.516Z,993
2022-12-08T21:19:39.458Z,993
2022-12-08T21:22:07.721Z,993
2022-12-08T21:25:13.194Z,993
2022-12-08T21:27:41.477Z,993
2022-12-08T21:33:15.401Z,993
2022-12-08T21:35:43.160Z,993
2022-12-08T21:38:11.465Z,993
2022-12-08T21:41:54.081Z,993
2022-12-08T21:44:59.177Z,993
2022-12-08T21:48:09.044Z,993
2022-12-08T21:51:46.835Z,993
2022-12-08T21:54:18.545Z,993
2022-12-08T21:56:43.336Z,993
2022-12-08T21:59:11.527Z,993.1
2022-12-08T22:02:20.925Z,993.1
2022-12-08T22:04:45.010Z,993
2022-12-08T22:07:13.236Z,993
2022-12-08T22:09:41.695Z,993.1
2022-12-08T22:12:09.690Z,993.1
2022-12-08T22:15:52.262Z,993.1
2022-12-08T22:20:03.522Z,993.1
2022-12-08T22:23:45.687Z,993.2
2022-12-08T22:26:13.992Z,993.1
2022-12-08T22:28:42.456Z,993.2
2022-12-08T22:31:10.629Z,993.2
2022-12-08T22:34:15.909Z,993.1
2022-12-08T22:36:43.979Z,993.1
2022-12-08T22:39:12.280Z,993.1
2022-12-08T22:41:40.635Z,993.1
2022-12-08T22:44:08.789Z,993.1
2022-12-08T22:47:14.186Z,993
2022-12-08T22:49:42.306Z,993
2022-12-08T22:52:10.564Z,993
2022-12-08T22:55:15.865Z,992.9
2022-12-08T22:57:44.111Z,992.9
2022-12-08T23:00:12.763Z,992.8
2022-12-08T23:02:40.681Z,992.9
2022-12-08T23:05:09.031Z,992.8
2022-12-08T23:08:14.213Z,992.8
2022-12-08T23:10:42.416Z,992.8
2022-12-08T23:13:10.707Z,992.8
2022-12-08T23:16:16.169Z,992.7
2022-12-08T23:18:44.451Z,992.7
2022-12-08T23:21:12.605Z,992.7
2022-12-08T23:23:40.728Z,992.6
2022-12-08T23:26:08.960Z,992.6
2022-12-08T23:29:14.331Z,992.6
2022-12-08T23:35:16.762Z,992.6
2022-12-08T23:37:45.008Z,992.6
2022-12-08T23:40:13.151Z,992.5
2022-12-08T23:42:41.542Z,993.1
2022-12-08T23:45:09.700Z,992.5
2022-12-08T23:48:52.260Z,992.4
2022-12-08T23:51:57.408Z,992.4
2022-12-08T23:55:02.847Z,992.4
2022-12-08T23:58:08.239Z,992.3
